Ana Sayfa
METAR-TAF:

METAR-TAF

Havaalanları :

Draughon-Miller Central Texas Regional Airport

Temple, Teksas, Amerika Birleşik Devletleri

Enlem: 31-09N, Boylam: 097-24W, yükseklik: 208 m

Güncel hava durumu gözlemi

Rapor saat 00:51 UTC de 21 dakika önce yapıldı.
Rüzgar doğu/güneydoğudan 5 kt
Sıcaklık 22°C
Nem 88%
Basınç 1015 hPa
Görüş mesafesi: 16.1 km
5000 ft yükseklikte parçalı bulutlu
6000 ft yükseklikte parçalı çok bulutlu

METAR: KTPL 070051Z AUTO 11005KT 10SM SCT050 BKN060 22/20 A2996 RMK AO2 SLP138 T02170200

Saat: 20:12 (01:12 UTC)


TAF: eksik

4.000'den fazla havaalanı için hava durumu gözlemleri ve tahminleri (METAR ve TAF raporları).

Kullanılabilir istasyonlar harita üzerinde sarı ve kırmızı noktalarla gösterilir.

İstasyonun adını görmek için fareyi noktanın üzerinde gezdirin.

Sonrasında hava gözlem ve tahminlerini görmek için tıklayın.

Haritayı değiştirmek için: yaklaştırmak için siyah artı işaretli yeşil düğmeye ve uzaklaştırmak için de eksi işaretli düğmeye hızla tıklayın; bitişik haritalar için yeşil okları kullanın.


METAR-TAF: